North Turner, Maine
Current Conditions -  °F | °C
As of 10:15 PM on Wednesday 22 Oct 2014 (Local Time) from KLEW Reporting Station
Overcast Overcast  
Wind Chill: 39°   Ceiling: 1100
Heat Index: 46°   Visibility: 10mi
Dew Point: 41°   Wind: 21mph
Humidity: 81%   Direction: 30°NNE
Pressure: 30.04"   Gusts: 26mph
Location:  44.34°N, 70.26°W
Report Text: KLEW 230215Z AUTO 03018G23KT 10SM OVC011 08/05 A3004 RMK AO1
Loading
Personal Weather Stations






























Interactive Weather Map
Tropical Storm Tracking
New forecast layout! Learn more

10-Day Weather Forecast

Advertisements
Track Severe Weather on mobile